Time;durP1;ratioP1;P1;durP2;ratioP2;P2;SDS_P1;SDS_P2;PMS_P1;PMS_P2;Temp;Humidity;BMP_temperature;BMP_pressure;BME280_temperature;BME280_humidity;BME280_pressure;Samples;Min_cycle;Max_cycle;Signal;HPM_P1;HPM_P2
2023/04/25 00:02:22;;;;;;;19.30;3.70;;;8.00;99.90;;;;;;6240691;23;20016;-70
2023/04/25 00:04:49;;;;;;;18.42;3.50;;;8.10;99.90;;;;;;6214465;23;20020;-70
2023/04/25 00:07:15;;;;;;;9.35;4.05;;;8.10;99.90;;;;;;6242332;23;20016;-70
2023/04/25 00:09:42;;;;;;;13.57;3.00;;;8.10;99.90;;;;;;6215420;23;20027;-70
2023/04/25 00:12:07;;;;;;;14.48;3.65;;;8.00;99.90;;;;;;6242537;23;20337;-70
2023/04/25 00:14:33;;;;;;;12.88;3.20;;;8.00;99.90;;;;;;6239945;23;20016;-71
2023/04/25 00:17:00;;;;;;;14.60;4.05;;;8.00;99.90;;;;;;6241395;23;20020;-70
2023/04/25 00:19:28;;;;;;;12.88;3.47;;;8.00;99.90;;;;;;6241970;23;20702;-70
2023/04/25 00:21:57;;;;;;;14.60;4.30;;;8.00;99.90;;;;;;6214979;23;20047;-71
2023/04/25 00:24:23;;;;;;;19.20;4.05;;;8.00;99.90;;;;;;6214709;23;20020;-70
2023/04/25 00:26:48;;;;;;;21.05;4.05;;;7.90;99.90;;;;;;6214601;23;20027;-70
2023/04/25 00:29:14;;;;;;;9.77;3.53;;;8.00;99.90;;;;;;6241505;23;20019;-70
2023/04/25 00:31:40;;;;;;;13.82;3.20;;;7.90;99.90;;;;;;6228731;23;20626;-70
2023/04/25 00:34:08;;;;;;;15.88;4.00;;;7.90;99.90;;;;;;6214482;23;20024;-70
2023/04/25 00:36:34;;;;;;;11.73;4.47;;;7.90;99.90;;;;;;6214797;23;20027;-70
2023/04/25 00:39:00;;;;;;;10.30;2.65;;;7.90;99.90;;;;;;6214459;23;20077;-70
2023/04/25 00:41:26;;;;;;;10.30;4.28;;;7.80;99.90;;;;;;6241324;23;20582;-71
2023/04/25 00:43:53;;;;;;;17.45;4.07;;;7.80;99.90;;;;;;6241829;23;20020;-71
2023/04/25 00:46:19;;;;;;;18.65;4.55;;;7.80;99.90;;;;;;6241928;23;20020;-70
2023/04/25 00:48:45;;;;;;;10.75;3.38;;;7.70;99.90;;;;;;6240845;23;20348;-71
2023/04/25 00:51:16;;;;;;;11.52;3.75;;;7.70;99.90;;;;;;6241725;23;20072;-70
2023/04/25 00:53:42;;;;;;;9.05;3.08;;;7.70;99.90;;;;;;6241725;23;20023;-70
2023/04/25 00:56:08;;;;;;;10.32;3.17;;;7.70;99.90;;;;;;6242083;23;20035;-71
2023/04/25 00:58:34;;;;;;;16.08;3.55;;;7.70;99.90;;;;;;6189546;23;20500;-71
2023/04/25 01:01:01;;;;;;;13.95;3.63;;;7.60;99.90;;;;;;6189292;23;20063;-70
2023/04/25 01:03:28;;;;;;;9.88;3.08;;;7.60;99.90;;;;;;6213653;23;20019;-70
2023/04/25 01:05:54;;;;;;;16.40;3.28;;;7.60;99.90;;;;;;6241785;23;20020;-70
2023/04/25 01:08:23;;;;;;;13.38;3.10;;;7.60;99.90;;;;;;6214695;23;20030;-71
2023/04/25 01:10:49;;;;;;;16.20;4.18;;;7.50;99.90;;;;;;6214489;23;20028;-71
2023/04/25 01:13:14;;;;;;;16.45;4.82;;;7.50;99.90;;;;;;6241157;23;20077;-71
2023/04/25 01:15:40;;;;;;;12.00;4.32;;;7.50;99.90;;;;;;6214386;23;20335;-71
2023/04/25 01:18:06;;;;;;;15.88;3.47;;;7.40;99.90;;;;;;6241009;23;20463;-71
2023/04/25 01:20:33;;;;;;;10.85;2.97;;;7.50;99.90;;;;;;6241609;23;20020;-70
2023/04/25 01:22:59;;;;;;;14.13;3.33;;;7.30;99.90;;;;;;6214567;23;20042;-71
2023/04/25 01:25:25;;;;;;;13.38;3.30;;;7.30;99.90;;;;;;6241456;23;20390;-71
2023/04/25 01:27:51;;;;;;;7.68;3.28;;;7.10;99.90;;;;;;6214219;23;20027;-71
2023/04/25 01:30:17;;;;;;;12.15;3.50;;;7.30;99.90;;;;;;6214439;23;20360;-71
2023/04/25 01:32:43;;;;;;;10.23;3.58;;;7.30;99.90;;;;;;6214400;23;20024;-71
2023/04/25 01:35:11;;;;;;;13.98;3.40;;;7.30;99.90;;;;;;6240901;23;20091;-71
2023/04/25 01:37:40;;;;;;;10.05;3.15;;;7.30;99.90;;;;;;6214189;23;20131;-71
2023/04/25 01:40:08;;;;;;;15.18;3.13;;;7.40;99.90;;;;;;6240737;23;20023;-71
2023/04/25 01:42:35;;;;;;;13.25;3.33;;;7.40;99.90;;;;;;6213875;23;20095;-71
2023/04/25 01:45:02;;;;;;;11.70;4.57;;;7.40;99.90;;;;;;6213901;23;20030;-71
2023/04/25 01:47:28;;;;;;;14.02;3.83;;;7.40;99.90;;;;;;6214265;23;20020;-71
2023/04/25 01:49:54;;;;;;;15.20;3.40;;;7.30;99.90;;;;;;6214153;23;20027;-71
2023/04/25 01:52:20;;;;;;;8.82;3.35;;;7.40;99.90;;;;;;6241221;23;20024;-71
2023/04/25 01:54:46;;;;;;;12.63;3.42;;;7.40;99.90;;;;;;6242041;23;20062;-71
2023/04/25 01:57:12;;;;;;;12.55;3.95;;;7.40;99.90;;;;;;6241080;23;20416;-71
2023/04/25 01:59:38;;;;;;;12.68;3.30;;;7.40;99.90;;;;;;6214534;23;20012;-71
2023/04/25 02:02:03;;;;;;;18.55;3.58;;;7.30;99.90;;;;;;6241305;23;20038;-70
2023/04/25 02:04:30;;;;;;;15.95;3.53;;;7.30;99.90;;;;;;6241304;23;20028;-71
2023/04/25 02:06:56;;;;;;;16.40;3.53;;;7.30;99.90;;;;;;6213908;23;20028;-71
2023/04/25 02:09:21;;;;;;;11.68;4.45;;;7.40;99.90;;;;;;6240977;23;20013;-71
2023/04/25 02:11:47;;;;;;;23.38;4.53;;;7.40;99.90;;;;;;6213782;23;20024;-71
2023/04/25 02:14:13;;;;;;;12.60;3.53;;;7.40;99.90;;;;;;6240834;23;20365;-71
2023/04/25 02:16:39;;;;;;;10.23;3.53;;;7.40;99.90;;;;;;6240864;23;20177;-71
2023/04/25 02:19:05;;;;;;;12.43;3.30;;;7.40;99.90;;;;;;6240907;23;20020;-71
2023/04/25 02:21:32;;;;;;;14.63;3.13;;;7.30;99.90;;;;;;6213873;23;20055;-70
2023/04/25 02:23:58;;;;;;;15.10;3.65;;;7.40;99.90;;;;;;6240876;23;20020;-71
2023/04/25 02:26:24;;;;;;;12.98;3.45;;;7.40;99.90;;;;;;6213454;23;20038;-71
2023/04/25 02:28:51;;;;;;;20.45;4.22;;;7.40;99.90;;;;;;6240810;23;20078;-71
2023/04/25 02:31:16;;;;;;;11.30;3.22;;;7.40;99.90;;;;;;6213761;23;20080;-71
2023/04/25 02:33:43;;;;;;;10.68;3.90;;;7.40;99.90;;;;;;6240974;23;20098;-71
2023/04/25 02:36:08;;;;;;;16.23;4.75;;;7.40;99.90;;;;;;6241105;23;20023;-71
2023/04/25 02:38:34;;;;;;;14.82;3.60;;;7.40;99.90;;;;;;6240727;23;20455;-71
2023/04/25 02:41:00;;;;;;;13.65;3.03;;;7.40;99.90;;;;;;6240236;23;20119;-71
2023/04/25 02:43:26;;;;;;;10.45;2.75;;;7.40;99.90;;;;;;6213844;23;20028;-71
2023/04/25 02:45:52;;;;;;;6.80;2.97;;;7.30;99.90;;;;;;6241145;23;20012;-70
2023/04/25 02:48:17;;;;;;;13.57;3.40;;;7.40;99.90;;;;;;6214246;23;20027;-71
2023/04/25 02:50:43;;;;;;;9.70;2.83;;;7.30;99.90;;;;;;6214224;23;20024;-71
2023/04/25 02:53:09;;;;;;;15.63;4.15;;;7.40;99.90;;;;;;6213840;23;20098;-71
2023/04/25 02:55:35;;;;;;;13.70;3.38;;;7.40;99.90;;;;;;6240654;23;20016;-71
2023/04/25 02:58:00;;;;;;;12.80;2.92;;;7.40;99.90;;;;;;6188271;23;20604;-71
2023/04/25 03:00:26;;;;;;;10.18;2.83;;;7.40;99.90;;;;;;6213520;23;20364;-71
2023/04/25 03:02:52;;;;;;;9.25;3.13;;;7.40;99.90;;;;;;6240999;23;20313;-71
2023/04/25 03:05:17;;;;;;;12.18;3.00;;;7.30;99.90;;;;;;6240652;23;20016;-71
2023/04/25 03:07:44;;;;;;;11.63;3.55;;;7.30;99.90;;;;;;6213770;23;20020;-71
2023/04/25 03:10:10;;;;;;;10.73;2.55;;;7.20;99.90;;;;;;6213746;23;20028;-71
2023/04/25 03:12:36;;;;;;;10.45;2.97;;;7.30;99.90;;;;;;6240879;23;20016;-71
2023/04/25 03:15:03;;;;;;;8.15;2.60;;;7.30;99.90;;;;;;6241087;23;20013;-71
2023/04/25 03:17:29;;;;;;;7.55;2.35;;;7.30;99.90;;;;;;6214109;23;20051;-71
2023/04/25 03:19:55;;;;;;;9.90;2.70;;;7.30;99.90;;;;;;6213660;23;20062;-71
2023/04/25 03:22:21;;;;;;;11.02;3.15;;;7.20;99.90;;;;;;6240973;23;20099;-71
2023/04/25 03:24:47;;;;;;;10.23;2.88;;;7.20;99.90;;;;;;6241167;23;20062;-71
2023/04/25 03:27:13;;;;;;;8.77;2.88;;;7.20;99.90;;;;;;6212627;23;20020;-71
2023/04/25 03:29:40;;;;;;;10.70;3.78;;;7.20;99.90;;;;;;6240871;23;20560;-71
2023/04/25 03:32:06;;;;;;;10.77;3.33;;;7.30;99.90;;;;;;6240494;23;20103;-70
2023/04/25 03:34:31;;;;;;;5.13;2.08;;;7.30;99.90;;;;;;6240688;23;20099;-71
2023/04/25 03:36:57;;;;;;;6.47;1.98;;;7.30;99.90;;;;;;6213673;23;20406;-71
2023/04/25 03:39:23;;;;;;;8.27;3.13;;;7.20;99.90;;;;;;6241732;23;20650;-71
2023/04/25 03:41:49;;;;;;;12.43;2.75;;;7.30;99.90;;;;;;6242074;23;20027;-71
2023/04/25 03:44:14;;;;;;;12.95;3.20;;;7.20;99.90;;;;;;6242582;23;20016;-71
2023/04/25 03:46:40;;;;;;;8.85;2.25;;;7.20;99.90;;;;;;6215280;23;20016;-71
2023/04/25 03:49:06;;;;;;;6.30;2.25;;;7.20;99.90;;;;;;6215417;23;20103;-71
2023/04/25 03:51:32;;;;;;;8.60;2.35;;;7.00;99.90;;;;;;6241997;23;20415;-71
2023/04/25 03:53:58;;;;;;;8.95;2.53;;;7.10;99.90;;;;;;6215380;23;20019;-71
2023/04/25 03:56:23;;;;;;;5.97;2.28;;;7.00;99.90;;;;;;6242430;23;20031;-71
2023/04/25 03:58:49;;;;;;;4.15;1.90;;;7.00;99.90;;;;;;6242273;23;20531;-71
2023/04/25 04:01:15;;;;;;;7.88;2.28;;;7.00;99.90;;;;;;6242028;23;20091;-71
2023/04/25 04:03:40;;;;;;;10.27;2.00;;;7.00;99.90;;;;;;6242333;23;20024;-70
2023/04/25 04:06:07;;;;;;;8.32;2.92;;;6.90;99.90;;;;;;6215107;23;20020;-71
2023/04/25 04:08:33;;;;;;;6.78;2.15;;;6.90;99.90;;;;;;6215096;23;20016;-71
2023/04/25 04:10:59;;;;;;;9.40;2.13;;;6.90;99.90;;;;;;6189513;23;20031;-71
2023/04/25 04:13:29;;;;;;;5.00;1.95;;;7.00;99.90;;;;;;6241063;23;20016;-70
2023/04/25 04:15:55;;;;;;;9.30;1.85;;;6.90;99.90;;;;;;6241236;23;20020;-71
2023/04/25 04:18:21;;;;;;;3.75;1.90;;;6.90;99.90;;;;;;6214487;23;20024;-71
2023/04/25 04:20:47;;;;;;;6.72;2.40;;;6.90;99.90;;;;;;6241464;23;20020;-71
2023/04/25 04:23:13;;;;;;;10.13;2.15;;;6.90;99.90;;;;;;6241690;23;20343;-71
2023/04/25 04:25:39;;;;;;;4.35;1.60;;;6.90;99.90;;;;;;6241652;23;20020;-71
2023/04/25 04:28:05;;;;;;;5.55;1.80;;;7.00;99.90;;;;;;6214571;23;20086;-71
2023/04/25 04:30:33;;;;;;;8.30;2.20;;;6.90;99.90;;;;;;6241807;23;20016;-71
2023/04/25 04:33:00;;;;;;;3.92;1.80;;;6.90;99.90;;;;;;6214653;23;20026;-71
2023/04/25 04:35:26;;;;;;;4.72;1.83;;;6.90;99.90;;;;;;6241781;23;20035;-71
2023/04/25 04:37:52;;;;;;;4.45;1.92;;;7.00;99.90;;;;;;6242017;23;20386;-71
2023/04/25 04:40:18;;;;;;;5.90;2.03;;;6.90;99.90;;;;;;6213971;23;20073;-71
2023/04/25 04:42:47;;;;;;;2.63;1.88;;;6.90;99.90;;;;;;6241403;23;20464;-71
2023/04/25 04:45:14;;;;;;;2.53;1.52;;;7.00;99.90;;;;;;6214672;23;20596;-71
2023/04/25 04:47:40;;;;;;;8.15;1.55;;;6.90;99.90;;;;;;6241745;23;20047;-71
2023/04/25 04:50:09;;;;;;;4.38;1.75;;;7.00;99.90;;;;;;6214383;23;20023;-71
2023/04/25 04:52:37;;;;;;;5.32;1.60;;;6.90;99.90;;;;;;6241767;23;20455;-71
2023/04/25 04:55:04;;;;;;;4.68;1.48;;;6.90;99.90;;;;;;6214397;23;20012;-71
2023/04/25 04:57:30;;;;;;;4.65;1.75;;;6.90;99.90;;;;;;6242072;23;20348;-71
2023/04/25 04:59:56;;;;;;;6.82;1.90;;;6.90;99.90;;;;;;6214494;23;20013;-71
2023/04/25 05:02:22;;;;;;;4.95;1.98;;;7.00;99.90;;;;;;6241145;23;20142;-71
2023/04/25 05:04:47;;;;;;;3.05;1.50;;;6.90;99.90;;;;;;6241939;23;20044;-71
2023/04/25 05:07:13;;;;;;;4.13;1.77;;;6.90;99.90;;;;;;6214679;23;20027;-71
2023/04/25 05:09:39;;;;;;;8.38;2.13;;;7.00;99.90;;;;;;6189344;23;20466;-71
2023/04/25 05:12:05;;;;;;;7.65;1.65;;;7.10;99.90;;;;;;6241463;23;20026;-71
2023/04/25 05:14:31;;;;;;;7.18;1.77;;;7.00;99.90;;;;;;6240783;23;20657;-71
2023/04/25 05:16:56;;;;;;;6.78;1.92;;;7.00;99.90;;;;;;6241337;23;20020;-71
2023/04/25 05:19:23;;;;;;;4.82;1.70;;;7.00;99.90;;;;;;6241005;23;20331;-72
2023/04/25 05:21:49;;;;;;;4.70;1.83;;;7.00;99.90;;;;;;6213701;23;20702;-72
2023/04/25 05:24:15;;;;;;;8.35;2.15;;;7.00;99.90;;;;;;6213850;23;20012;-72
2023/04/25 05:26:41;;;;;;;5.03;2.35;;;7.00;99.90;;;;;;6241177;23;20055;-72
2023/04/25 05:29:07;;;;;;;6.68;1.85;;;7.10;99.90;;;;;;6214055;23;20039;-72
2023/04/25 05:31:33;;;;;;;5.05;2.00;;;7.00;99.90;;;;;;6213894;23;20030;-71
2023/04/25 05:33:58;;;;;;;7.50;2.47;;;7.00;99.90;;;;;;6214198;23;20099;-71
2023/04/25 05:36:24;;;;;;;5.40;2.13;;;7.00;99.90;;;;;;6214245;23;20555;-72
2023/04/25 05:38:50;;;;;;;4.45;1.90;;;7.10;99.90;;;;;;6240851;23;20095;-72
2023/04/25 05:41:15;;;;;;;4.38;2.58;;;7.20;99.90;;;;;;6240807;23;20024;-72
2023/04/25 05:43:46;;;;;;;4.57;1.83;;;7.40;99.90;;;;;;6213979;23;20101;-71
2023/04/25 05:46:12;;;;;;;4.13;1.63;;;7.60;99.90;;;;;;6240910;23;20020;-72
2023/04/25 05:48:38;;;;;;;13.27;2.15;;;7.70;99.90;;;;;;6214016;23;20027;-72
2023/04/25 05:51:04;;;;;;;11.43;2.65;;;7.80;99.90;;;;;;6213737;23;20027;-72
2023/04/25 05:53:29;;;;;;;7.07;2.13;;;7.90;99.90;;;;;;6213810;23;20479;-72
2023/04/25 05:55:55;;;;;;;7.15;2.08;;;8.00;99.90;;;;;;6188970;23;20442;-71
2023/04/25 05:58:21;;;;;;;9.10;2.20;;;8.10;99.90;;;;;;6240765;23;20031;-71
2023/04/25 06:00:46;;;;;;;6.85;2.15;;;8.10;99.90;;;;;;6240768;23;20114;-71
2023/04/25 06:03:14;;;;;;;7.97;3.13;;;8.30;99.90;;;;;;6188828;23;20462;-71
2023/04/25 06:05:43;;;;;;;9.88;2.38;;;8.40;99.90;;;;;;6240806;23;20020;-72
2023/04/25 06:08:10;;;;;;;7.00;2.05;;;8.40;99.90;;;;;;6213704;23;20096;-72
2023/04/25 06:10:36;;;;;;;6.68;2.10;;;8.40;99.90;;;;;;6241114;23;20038;-72
2023/04/25 06:13:02;;;;;;;7.63;2.20;;;8.30;99.90;;;;;;6213883;23;20016;-72
2023/04/25 06:15:28;;;;;;;9.77;1.92;;;8.30;99.90;;;;;;6213961;23;20027;-72
2023/04/25 06:17:54;;;;;;;13.77;3.85;;;8.30;99.90;;;;;;6214225;23;20024;-72
2023/04/25 06:20:22;;;;;;;10.77;2.42;;;8.30;99.90;;;;;;6241019;23;20091;-72
2023/04/25 06:22:49;;;;;;;7.43;2.50;;;8.20;99.90;;;;;;6241189;23;20012;-72
2023/04/25 06:25:15;;;;;;;9.73;1.73;;;8.10;99.90;;;;;;6213798;23;20024;-72
2023/04/25 06:27:41;;;;;;;11.25;2.97;;;8.20;99.90;;;;;;6240764;23;20020;-72
2023/04/25 06:30:07;;;;;;;8.13;2.58;;;8.00;99.90;;;;;;6240569;23;20098;-71
2023/04/25 06:32:34;;;;;;;5.57;1.75;;;8.20;99.90;;;;;;6240560;23;20059;-71
2023/04/25 06:35:00;;;;;;;9.93;2.15;;;8.10;99.90;;;;;;6213552;23;20028;-71
2023/04/25 06:37:26;;;;;;;4.28;1.90;;;8.10;99.90;;;;;;6214642;23;20077;-71
2023/04/25 06:39:52;;;;;;;5.25;1.77;;;8.10;99.90;;;;;;6240942;23;20091;-71
2023/04/25 06:42:17;;;;;;;8.50;2.05;;;8.10;99.90;;;;;;6188605;23;20405;-71
2023/04/25 06:44:43;;;;;;;4.40;1.85;;;8.10;99.90;;;;;;6213788;23;20097;-71
2023/04/25 06:47:09;;;;;;;6.82;1.90;;;8.10;99.90;;;;;;6240740;23;20419;-73
2023/04/25 06:49:34;;;;;;;4.43;1.65;;;8.10;99.90;;;;;;6213363;23;20020;-71
2023/04/25 06:52:00;;;;;;;10.25;1.95;;;8.40;99.90;;;;;;6241047;23;20081;-71
2023/04/25 06:54:28;;;;;;;10.45;2.72;;;8.30;99.90;;;;;;6240815;23;20313;-69
2023/04/25 06:56:54;;;;;;;7.20;1.88;;;8.40;99.90;;;;;;6240441;23;20479;-69
2023/04/25 06:59:20;;;;;;;4.32;1.63;;;8.40;99.90;;;;;;6240729;23;20031;-70
2023/04/25 07:01:45;;;;;;;10.52;2.28;;;8.50;99.90;;;;;;6240706;23;20046;-70
2023/04/25 07:04:11;;;;;;;4.75;1.70;;;8.60;99.90;;;;;;6240306;23;20019;-70
2023/04/25 07:06:42;;;;;;;5.20;2.08;;;8.60;99.90;;;;;;6240747;23;20016;-69
2023/04/25 07:09:08;;;;;;;4.57;1.80;;;8.60;99.90;;;;;;6213662;23;20019;-69
2023/04/25 07:11:34;;;;;;;10.30;2.50;;;8.70;99.90;;;;;;6213540;23;20028;-69
2023/04/25 07:14:00;;;;;;;8.85;3.33;;;8.70;99.90;;;;;;6242350;23;20031;-69
2023/04/25 07:16:26;;;;;;;7.32;2.45;;;8.80;99.90;;;;;;6242922;23;20095;-69
2023/04/25 07:18:51;;;;;;;3.67;2.22;;;8.90;99.90;;;;;;6242550;23;20039;-69
2023/04/25 07:21:17;;;;;;;3.75;1.95;;;8.90;99.90;;;;;;6215578;23;20490;-68
2023/04/25 07:23:43;;;;;;;4.38;1.92;;;8.90;99.90;;;;;;6243074;23;20048;-70
2023/04/25 07:26:09;;;;;;;10.90;3.03;;;8.90;99.90;;;;;;6243088;23;20020;-71
2023/04/25 07:28:34;;;;;;;5.45;1.80;;;8.60;99.90;;;;;;6190397;23;20470;-71
2023/04/25 07:31:00;;;;;;;6.35;2.60;;;8.70;99.90;;;;;;6241103;23;20058;-70
2023/04/25 07:33:26;;;;;;;3.63;2.08;;;8.70;99.90;;;;;;6215562;23;20058;-70
2023/04/25 07:35:52;;;;;;;7.15;1.73;;;8.70;99.90;;;;;;6215718;23;20070;-70
2023/04/25 07:38:18;;;;;;;5.97;1.70;;;8.80;99.90;;;;;;6241969;23;20016;-71
2023/04/25 07:40:43;;;;;;;5.78;1.90;;;8.80;99.90;;;;;;6213519;23;20103;-69
2023/04/25 07:43:12;;;;;;;4.03;1.67;;;8.80;99.90;;;;;;6240236;23;20030;-71
2023/04/25 07:45:37;;;;;;;9.10;1.98;;;8.80;99.90;;;;;;6234715;23;20016;-70
2023/04/25 07:48:03;;;;;;;3.65;1.90;;;8.80;99.90;;;;;;6241899;23;20024;-73
2023/04/25 07:50:29;;;;;;;6.97;1.52;;;8.90;99.90;;;;;;6215226;23;20074;-73
2023/04/25 07:52:55;;;;;;;7.00;1.40;;;8.80;99.90;;;;;;6190315;23;20032;-71
2023/04/25 07:55:21;;;;;;;3.60;1.27;;;9.00;99.90;;;;;;6215310;23;20020;-71
2023/04/25 07:57:46;;;;;;;3.53;2.00;;;9.00;99.90;;;;;;6215579;23;20444;-72
2023/04/25 08:00:13;;;;;;;7.82;2.22;;;9.10;99.90;;;;;;6242171;23;20024;-71
2023/04/25 08:02:38;;;;;;;3.65;1.58;;;9.10;99.90;;;;;;6214946;23;20024;-71
2023/04/25 08:05:04;;;;;;;6.97;2.92;;;9.10;99.90;;;;;;6242251;23;20024;-71
2023/04/25 08:07:30;;;;;;;5.75;1.75;;;9.20;99.90;;;;;;6215826;23;20572;-71
2023/04/25 08:09:56;;;;;;;7.22;1.60;;;9.20;99.90;;;;;;6242307;23;20087;-71
2023/04/25 08:12:21;;;;;;;4.95;1.60;;;9.20;99.90;;;;;;6242453;23;20008;-71
2023/04/25 08:14:47;;;;;;;7.18;1.80;;;9.20;99.90;;;;;;6215405;23;20016;-72
2023/04/25 08:17:13;;;;;;;7.80;1.70;;;9.20;99.90;;;;;;6215133;23;20020;-72
2023/04/25 08:19:39;;;;;;;5.75;2.00;;;9.10;99.90;;;;;;6215513;23;20758;-72
2023/04/25 08:22:04;;;;;;;2.97;1.50;;;9.30;99.90;;;;;;6215013;23;20024;-72
2023/04/25 08:24:30;;;;;;;6.57;1.77;;;9.30;99.90;;;;;;6214420;23;20091;-72
2023/04/25 08:26:56;;;;;;;4.45;1.50;;;9.20;99.90;;;;;;6215357;23;20024;-71
2023/04/25 08:29:23;;;;;;;3.00;1.73;;;9.10;99.90;;;;;;6215066;23;20048;-72
2023/04/25 08:31:50;;;;;;;2.20;1.35;;;9.20;99.90;;;;;;6214827;23;20666;-71
2023/04/25 08:34:16;;;;;;;4.30;1.60;;;9.20;99.90;;;;;;6241927;23;20055;-72
2023/04/25 08:36:41;;;;;;;3.60;1.20;;;9.20;99.90;;;;;;6242326;23;20027;-72
2023/04/25 08:39:07;;;;;;;4.50;2.00;;;9.10;99.90;;;;;;6241886;23;20016;-72
2023/04/25 08:41:33;;;;;;;2.97;1.40;;;9.10;99.90;;;;;;6241469;23;20063;-72
2023/04/25 08:44:00;;;;;;;3.42;1.50;;;9.10;99.90;;;;;;6214995;23;20031;-72
2023/04/25 08:46:27;;;;;;;2.83;1.40;;;9.10;99.90;;;;;;6241855;23;20031;-72
2023/04/25 08:48:56;;;;;;;3.15;1.90;;;9.20;99.90;;;;;;6215387;23;20023;-72
2023/04/25 08:51:27;;;;;;;7.82;2.00;;;9.20;99.90;;;;;;6242342;23;20020;-72
2023/04/25 08:53:53;;;;;;;6.97;1.95;;;9.30;99.90;;;;;;6214764;23;20026;-72
2023/04/25 08:56:23;;;;;;;3.03;1.52;;;9.40;99.90;;;;;;6214826;23;20095;-72
2023/04/25 08:58:51;;;;;;;3.85;1.60;;;9.40;99.90;;;;;;6214916;23;20036;-72
2023/04/25 09:01:18;;;;;;;1.70;1.42;;;9.40;99.90;;;;;;6214247;23;20083;-72
2023/04/25 09:03:46;;;;;;;5.95;1.48;;;9.50;99.90;;;;;;6214615;23;20016;-72
2023/04/25 09:06:13;;;;;;;4.10;1.65;;;9.50;99.90;;;;;;6214684;23;20016;-72
2023/04/25 09:08:40;;;;;;;5.88;3.30;;;9.60;99.90;;;;;;6241658;23;20035;-73
2023/04/25 09:11:07;;;;;;;8.23;2.05;;;9.60;99.90;;;;;;6214526;23;20559;-72
2023/04/25 09:13:33;;;;;;;4.95;1.63;;;9.50;99.90;;;;;;6241964;23;20012;-73
2023/04/25 09:15:59;;;;;;;2.97;1.60;;;9.60;99.90;;;;;;6214613;23;20528;-73
2023/04/25 09:18:25;;;;;;;5.15;2.78;;;9.60;99.90;;;;;;6189459;23;20605;-73
2023/04/25 09:20:53;;;;;;;5.85;1.70;;;9.60;99.90;;;;;;6241309;23;20031;-73
2023/04/25 09:23:21;;;;;;;3.22;1.58;;;9.70;99.90;;;;;;6214773;23;20024;-73
2023/04/25 09:25:53;;;;;;;2.92;1.42;;;9.70;99.90;;;;;;6241754;23;20094;-73
2023/04/25 09:28:23;;;;;;;;;;;9.80;99.90;;;;;;6214819;23;20387;-73
2023/04/25 09:30:48;;;;;;;3.70;2.05;;;9.90;99.90;;;;;;6241121;23;19994;-72
2023/04/25 09:33:14;;;;;;;4.45;1.55;;;9.90;99.90;;;;;;6240987;23;20059;-72
2023/04/25 09:35:43;;;;;;;8.57;1.88;;;10.00;99.90;;;;;;6214382;23;20094;-73
2023/04/25 09:38:14;;;;;;;5.28;1.67;;;9.90;99.90;;;;;;6214429;23;20056;-73
2023/04/25 09:40:45;;;;;;;4.05;2.10;;;9.90;99.90;;;;;;6240000;23;20032;-73
2023/04/25 09:43:22;;;;;;;3.45;1.80;;;9.70;99.90;;;;;;6189052;23;20024;-69
2023/04/25 09:45:49;;;;;;;3.95;1.55;;;9.00;99.90;;;;;;6241401;23;20091;-70
2023/04/25 09:48:21;;;;;;;4.75;1.52;;;8.60;99.90;;;;;;6241283;23;20020;-70
2023/04/25 09:51:06;;;;;;;;;;;8.40;99.90;;;;;;6242306;23;20012;-71
2023/04/25 09:53:33;;;;;;;5.68;1.55;;;8.30;99.90;;;;;;6214646;23;20363;-71
2023/04/25 09:56:00;;;;;;;6.10;1.58;;;8.10;99.90;;;;;;6241830;23;20424;-70
2023/04/25 09:58:30;;;;;;;2.78;1.48;;;8.10;99.90;;;;;;6240757;23;20016;-71
2023/04/25 10:01:00;;;;;;;3.63;1.40;;;8.10;99.90;;;;;;6214267;23;20521;-71
2023/04/25 10:03:26;;;;;;;6.07;1.70;;;8.20;99.90;;;;;;6241348;23;20346;-71
2023/04/25 10:05:54;;;;;;;3.45;1.83;;;8.20;99.90;;;;;;6189081;23;20020;-71
2023/04/25 10:08:20;;;;;;;1.95;1.05;;;8.20;99.90;;;;;;6241387;23;20028;-70
2023/04/25 10:10:48;;;;;;;3.13;1.30;;;8.30;99.90;;;;;;6188946;23;20028;-71
2023/04/25 10:13:15;;;;;;;2.65;1.25;;;8.30;99.90;;;;;;6240641;23;20020;-71
2023/04/25 10:15:41;;;;;;;1.00;1.00;;;8.40;99.90;;;;;;6214004;23;20020;-71
2023/04/25 10:18:08;;;;;;;4.55;1.45;;;8.50;99.90;;;;;;6240742;23;20150;-70
2023/04/25 10:20:34;;;;;;;3.95;1.38;;;8.60;99.90;;;;;;6213786;23;20352;-71
2023/04/25 10:23:09;;;;;;;4.88;1.58;;;8.70;99.90;;;;;;6213818;23;20091;-70
2023/04/25 10:25:35;;;;;;;2.00;1.50;;;8.90;99.90;;;;;;6240805;23;20012;-70
2023/04/25 10:28:03;;;;;;;6.00;1.60;;;9.10;99.90;;;;;;6240488;23;20070;-70
2023/04/25 10:30:29;;;;;;;3.65;1.42;;;9.10;99.90;;;;;;6241010;23;20062;-70
2023/04/25 10:32:56;;;;;;;3.55;1.20;;;9.10;99.90;;;;;;6240588;23;20487;-70
2023/04/25 10:35:26;;;;;;;6.82;2.00;;;9.00;99.90;;;;;;6241031;23;20008;-70
2023/04/25 10:38:13;;;;;;;3.58;1.40;;;9.10;99.90;;;;;;6240911;23;20016;-70
2023/04/25 10:40:39;;;;;;;3.42;1.30;;;9.00;99.90;;;;;;6240193;23;20031;-70
2023/04/25 10:43:30;;;;;;;3.90;1.40;;;9.10;99.90;;;;;;6240682;23;20048;-70
2023/04/25 10:45:56;;;;;;;5.43;1.75;;;9.10;99.90;;;;;;6241258;23;20024;-70
2023/04/25 10:48:26;;;;;;;5.45;2.28;;;8.90;99.90;;;;;;6240720;23;20054;-69
2023/04/25 10:51:17;;;;;;;6.35;2.03;;;9.10;99.90;;;;;;6241072;23;20058;-69
2023/04/25 10:53:56;;;;;;;6.13;2.05;;;9.20;99.90;;;;;;6213429;23;20022;-71
2023/04/25 10:56:30;;;;;;;7.57;2.50;;;9.40;99.90;;;;;;6240637;23;20012;-72
2023/04/25 10:59:15;;;;;;;6.72;1.85;;;9.60;99.90;;;;;;6213470;23;20028;-72
2023/04/25 11:01:43;;;;;;;2.67;1.55;;;9.70;99.90;;;;;;6213442;23;20031;-71
2023/04/25 11:04:22;;;;;;;5.95;1.90;;;9.80;99.90;;;;;;6213728;23;20596;-73
2023/04/25 11:07:12;;;;;;;3.63;1.98;;;9.90;99.90;;;;;;6213603;23;20026;-73
2023/04/25 11:09:41;;;;;;;4.50;1.63;;;10.00;99.90;;;;;;6213859;23;20026;-73
2023/04/25 11:12:11;;;;;;;7.22;1.90;;;10.10;99.90;;;;;;6189843;23;20024;-73
2023/04/25 11:14:37;;;;;;;1.98;1.55;;;10.10;99.90;;;;;;6239692;23;20020;-72
2023/04/25 11:17:03;;;;;;;6.30;2.38;;;10.00;99.90;;;;;;6213037;23;20093;-71
2023/04/25 11:19:29;;;;;;;4.25;2.00;;;9.90;99.90;;;;;;6240368;23;20019;-71
2023/04/25 11:21:56;;;;;;;3.65;1.73;;;10.00;99.90;;;;;;6212802;23;20094;-71
2023/04/25 11:24:32;;;;;;;4.45;1.83;;;9.90;99.90;;;;;;6239686;23;20021;-71
2023/04/25 11:26:59;;;;;;;6.78;2.10;;;10.00;99.90;;;;;;6212265;23;20396;-71
2023/04/25 11:29:35;;;;;;;4.78;1.67;;;10.00;99.90;;;;;;6240612;23;20024;-71
2023/04/25 11:32:02;;;;;;;5.15;1.67;;;10.10;99.90;;;;;;6212948;23;20648;-71
2023/04/25 11:34:32;;;;;;;4.80;1.92;;;10.20;99.90;;;;;;6188353;23;20110;-72
2023/04/25 11:37:02;;;;;;;7.00;2.55;;;10.20;99.90;;;;;;6213255;23;20027;-71
2023/04/25 11:39:28;;;;;;;7.18;2.05;;;10.30;99.90;;;;;;6239888;23;20027;-71
2023/04/25 11:41:55;;;;;;;2.60;1.40;;;10.40;99.90;;;;;;6239532;23;20024;-71
2023/04/25 11:44:22;;;;;;;3.33;1.95;;;10.60;99.90;;;;;;6240177;23;20131;-71
2023/04/25 11:46:48;;;;;;;3.42;1.70;;;10.60;99.90;;;;;;6239055;23;20081;-74
2023/04/25 11:49:15;;;;;;;11.18;2.63;;;10.50;99.90;;;;;;6239896;23;20081;-71
2023/04/25 11:51:45;;;;;;;9.43;2.17;;;10.30;99.90;;;;;;6240453;23;20020;-72
2023/04/25 11:54:11;;;;;;;6.45;1.50;;;10.20;99.90;;;;;;6187461;23;20059;-73
2023/04/25 11:56:40;;;;;;;5.60;1.77;;;10.00;99.90;;;;;;6213543;23;20019;-74
2023/04/25 11:59:06;;;;;;;4.10;1.60;;;9.90;99.90;;;;;;6240676;23;20347;-73
2023/04/25 12:01:37;;;;;;;3.35;1.30;;;9.90;99.90;;;;;;6214932;23;20020;-72
2023/04/25 12:04:16;;;;;;;8.32;3.47;;;9.90;99.90;;;;;;6215227;23;20020;-72
2023/04/25 12:06:47;;;;;;;3.85;1.35;;;9.80;99.90;;;;;;6242135;23;20062;-73
2023/04/25 12:09:14;;;;;;;4.47;2.30;;;9.70;99.90;;;;;;6190452;23;20028;-72
2023/04/25 12:11:44;;;;;;;1.98;1.25;;;9.70;99.90;;;;;;6215074;23;20108;-71
2023/04/25 12:14:10;;;;;;;4.63;2.88;;;9.60;99.90;;;;;;6215290;23;20038;-72
2023/04/25 12:16:44;;;;;;;2.97;1.30;;;9.40;99.90;;;;;;6215451;23;20024;-72
2023/04/25 12:19:10;;;;;;;3.72;1.63;;;9.50;99.90;;;;;;6215404;23;20570;-72
2023/04/25 12:21:36;;;;;;;9.65;1.58;;;9.60;99.90;;;;;;6214877;23;20016;-72
2023/04/25 12:24:24;;;;;;;5.35;1.67;;;9.50;99.90;;;;;;6241678;23;20024;-72
2023/04/25 12:27:00;;;;;;;4.47;1.73;;;9.60;99.90;;;;;;6214935;23;20024;-72
2023/04/25 12:29:28;;;;;;;3.85;1.48;;;9.70;99.90;;;;;;6214841;23;20016;-71
2023/04/25 12:31:55;;;;;;;5.45;1.20;;;9.70;99.90;;;;;;6214347;23;20381;-71
2023/04/25 12:34:22;;;;;;;7.22;1.83;;;9.80;99.90;;;;;;6214549;23;20078;-72
2023/04/25 12:36:48;;;;;;;4.53;1.42;;;9.90;99.90;;;;;;6215397;23;20023;-71
2023/04/25 12:39:15;;;;;;;5.55;1.58;;;9.90;99.90;;;;;;6241494;23;20373;-74
2023/04/25 12:41:41;;;;;;;3.42;1.95;;;9.90;99.90;;;;;;6214408;23;20086;-71
2023/04/25 12:44:07;;;;;;;7.60;1.40;;;9.90;99.90;;;;;;6241587;23;20340;-71
2023/04/25 12:46:32;;;;;;;1.88;1.38;;;9.90;99.90;;;;;;6241994;23;20016;-70
2023/04/25 12:48:58;;;;;;;3.72;1.60;;;9.90;99.90;;;;;;6214867;23;20023;-70
2023/04/25 12:51:24;;;;;;;3.28;2.08;;;10.00;99.90;;;;;;6241557;23;20031;-70
2023/04/25 12:53:51;;;;;;;5.47;1.35;;;10.00;99.90;;;;;;6215010;23;20020;-70